sensor_id;sensor_type;location;lat;lon;timestamp;P1;durP1;ratioP1;P2;durP2;ratioP2
78895;SDS011;68284;59.124;37.910;2024-01-10T00:02:19;220.02;;;94.35;;
78895;SDS011;68284;59.124;37.910;2024-01-10T00:04:47;221.55;;;96.97;;
78895;SDS011;68284;59.124;37.910;2024-01-10T00:07:13;225.50;;;99.22;;
78895;SDS011;68284;59.124;37.910;2024-01-10T00:09:39;225.00;;;98.65;;
78895;SDS011;68284;59.124;37.910;2024-01-10T00:12:06;220.98;;;92.85;;
78895;SDS011;68284;59.124;37.910;2024-01-10T00:14:32;228.15;;;94.07;;
78895;SDS011;68284;59.124;37.910;2024-01-10T00:16:59;222.38;;;95.00;;
78895;SDS011;68284;59.124;37.910;2024-01-10T00:24:19;219.52;;;94.00;;
78895;SDS011;68284;59.124;37.910;2024-01-10T00:26:45;231.07;;;102.90;;
78895;SDS011;68284;59.124;37.910;2024-01-10T00:29:13;232.48;;;106.07;;
78895;SDS011;68284;59.124;37.910;2024-01-10T00:31:39;229.20;;;101.53;;
78895;SDS011;68284;59.124;37.910;2024-01-10T00:34:06;225.93;;;94.32;;
78895;SDS011;68284;59.124;37.910;2024-01-10T00:36:34;226.90;;;95.07;;
78895;SDS011;68284;59.124;37.910;2024-01-10T00:39:03;226.02;;;95.90;;
78895;SDS011;68284;59.124;37.910;2024-01-10T00:41:31;226.00;;;94.00;;
78895;SDS011;68284;59.124;37.910;2024-01-10T00:43:58;232.65;;;99.10;;
78895;SDS011;68284;59.124;37.910;2024-01-10T00:46:24;246.77;;;104.80;;
78895;SDS011;68284;59.124;37.910;2024-01-10T00:48:52;230.32;;;95.90;;
78895;SDS011;68284;59.124;37.910;2024-01-10T00:51:18;229.52;;;95.00;;
78895;SDS011;68284;59.124;37.910;2024-01-10T00:53:45;237.18;;;104.80;;
78895;SDS011;68284;59.124;37.910;2024-01-10T00:56:12;228.57;;;95.38;;
78895;SDS011;68284;59.124;37.910;2024-01-10T00:58:39;229.02;;;96.07;;
78895;SDS011;68284;59.124;37.910;2024-01-10T01:01:06;229.13;;;97.82;;
78895;SDS011;68284;59.124;37.910;2024-01-10T01:03:34;235.77;;;103.32;;
78895;SDS011;68284;59.124;37.910;2024-01-10T01:06:02;227.50;;;95.88;;
78895;SDS011;68284;59.124;37.910;2024-01-10T01:08:28;230.35;;;97.05;;
78895;SDS011;68284;59.124;37.910;2024-01-10T01:10:55;235.48;;;103.38;;
78895;SDS011;68284;59.124;37.910;2024-01-10T01:13:24;232.93;;;96.82;;
78895;SDS011;68284;59.124;37.910;2024-01-10T01:15:50;238.57;;;105.25;;
78895;SDS011;68284;59.124;37.910;2024-01-10T01:18:17;230.43;;;97.47;;
78895;SDS011;68284;59.124;37.910;2024-01-10T01:20:46;231.75;;;97.55;;
78895;SDS011;68284;59.124;37.910;2024-01-10T01:23:14;233.55;;;102.38;;
78895;SDS011;68284;59.124;37.910;2024-01-10T01:25:41;228.23;;;95.05;;
78895;SDS011;68284;59.124;37.910;2024-01-10T01:28:08;238.35;;;107.45;;
78895;SDS011;68284;59.124;37.910;2024-01-10T01:30:34;228.60;;;96.25;;
78895;SDS011;68284;59.124;37.910;2024-01-10T01:33:01;225.95;;;94.18;;
78895;SDS011;68284;59.124;37.910;2024-01-10T01:35:30;231.75;;;96.78;;
78895;SDS011;68284;59.124;37.910;2024-01-10T01:37:57;232.38;;;104.97;;
78895;SDS011;68284;59.124;37.910;2024-01-10T01:40:24;230.35;;;102.28;;
78895;SDS011;68284;59.124;37.910;2024-01-10T01:42:53;227.00;;;95.32;;
78895;SDS011;68284;59.124;37.910;2024-01-10T01:45:20;229.13;;;102.32;;
78895;SDS011;68284;59.124;37.910;2024-01-10T01:47:49;226.93;;;95.18;;
78895;SDS011;68284;59.124;37.910;2024-01-10T01:50:16;234.10;;;107.32;;
78895;SDS011;68284;59.124;37.910;2024-01-10T01:52:43;227.52;;;96.07;;
78895;SDS011;68284;59.124;37.910;2024-01-10T01:55:11;233.68;;;104.90;;
78895;SDS011;68284;59.124;37.910;2024-01-10T01:57:38;227.35;;;98.57;;
78895;SDS011;68284;59.124;37.910;2024-01-10T02:00:05;223.05;;;94.20;;
78895;SDS011;68284;59.124;37.910;2024-01-10T02:02:35;220.93;;;94.45;;
78895;SDS011;68284;59.124;37.910;2024-01-10T02:05:02;227.63;;;100.32;;
78895;SDS011;68284;59.124;37.910;2024-01-10T02:07:31;234.02;;;104.63;;
78895;SDS011;68284;59.124;37.910;2024-01-10T02:09:57;228.85;;;94.30;;
78895;SDS011;68284;59.124;37.910;2024-01-10T02:12:24;227.93;;;95.38;;
78895;SDS011;68284;59.124;37.910;2024-01-10T02:14:51;226.90;;;94.18;;
78895;SDS011;68284;59.124;37.910;2024-01-10T02:17:19;232.93;;;104.75;;
78895;SDS011;68284;59.124;37.910;2024-01-10T02:19:47;226.18;;;95.60;;
78895;SDS011;68284;59.124;37.910;2024-01-10T02:22:15;223.75;;;93.50;;
78895;SDS011;68284;59.124;37.910;2024-01-10T02:24:41;223.43;;;93.72;;
78895;SDS011;68284;59.124;37.910;2024-01-10T02:27:08;226.68;;;96.45;;
78895;SDS011;68284;59.124;37.910;2024-01-10T02:29:34;225.13;;;99.07;;
78895;SDS011;68284;59.124;37.910;2024-01-10T02:32:02;228.35;;;100.78;;
78895;SDS011;68284;59.124;37.910;2024-01-10T02:34:29;224.43;;;94.82;;
78895;SDS011;68284;59.124;37.910;2024-01-10T02:39:23;227.65;;;97.47;;
78895;SDS011;68284;59.124;37.910;2024-01-10T02:41:50;226.07;;;96.03;;
78895;SDS011;68284;59.124;37.910;2024-01-10T02:44:20;231.70;;;97.18;;
78895;SDS011;68284;59.124;37.910;2024-01-10T02:46:49;231.60;;;107.95;;
78895;SDS011;68284;59.124;37.910;2024-01-10T02:49:15;231.43;;;103.47;;
78895;SDS011;68284;59.124;37.910;2024-01-10T02:51:44;229.80;;;96.15;;
78895;SDS011;68284;59.124;37.910;2024-01-10T02:54:11;238.52;;;107.97;;
78895;SDS011;68284;59.124;37.910;2024-01-10T02:59:05;230.52;;;98.50;;
78895;SDS011;68284;59.124;37.910;2024-01-10T03:01:32;238.05;;;105.80;;
78895;SDS011;68284;59.124;37.910;2024-01-10T03:04:00;238.88;;;105.93;;
78895;SDS011;68284;59.124;37.910;2024-01-10T03:06:28;235.80;;;100.10;;
78895;SDS011;68284;59.124;37.910;2024-01-10T03:11:23;233.02;;;103.13;;
78895;SDS011;68284;59.124;37.910;2024-01-10T03:13:53;236.90;;;101.32;;
78895;SDS011;68284;59.124;37.910;2024-01-10T03:16:30;233.30;;;99.53;;
78895;SDS011;68284;59.124;37.910;2024-01-10T03:18:59;235.85;;;99.43;;
78895;SDS011;68284;59.124;37.910;2024-01-10T03:21:26;238.88;;;106.10;;
78895;SDS011;68284;59.124;37.910;2024-01-10T03:23:59;236.27;;;100.43;;
78895;SDS011;68284;59.124;37.910;2024-01-10T03:26:29;238.45;;;102.40;;
78895;SDS011;68284;59.124;37.910;2024-01-10T03:28:56;236.57;;;102.65;;
78895;SDS011;68284;59.124;37.910;2024-01-10T03:31:23;239.18;;;109.30;;
78895;SDS011;68284;59.124;37.910;2024-01-10T03:33:52;242.98;;;102.13;;
78895;SDS011;68284;59.124;37.910;2024-01-10T03:36:20;240.05;;;104.00;;
78895;SDS011;68284;59.124;37.910;2024-01-10T03:38:46;240.20;;;101.82;;
78895;SDS011;68284;59.124;37.910;2024-01-10T03:41:19;239.85;;;104.35;;
78895;SDS011;68284;59.124;37.910;2024-01-10T03:43:49;240.63;;;108.07;;
78895;SDS011;68284;59.124;37.910;2024-01-10T03:46:16;242.30;;;105.00;;
78895;SDS011;68284;59.124;37.910;2024-01-10T03:48:43;243.18;;;105.07;;
78895;SDS011;68284;59.124;37.910;2024-01-10T03:51:18;242.95;;;109.50;;
78895;SDS011;68284;59.124;37.910;2024-01-10T03:53:45;242.95;;;114.03;;
78895;SDS011;68284;59.124;37.910;2024-01-10T03:56:12;242.98;;;110.15;;
78895;SDS011;68284;59.124;37.910;2024-01-10T03:58:39;244.93;;;113.63;;
78895;SDS011;68284;59.124;37.910;2024-01-10T04:01:06;238.90;;;102.80;;
78895;SDS011;68284;59.124;37.910;2024-01-10T04:03:35;243.15;;;104.18;;
78895;SDS011;68284;59.124;37.910;2024-01-10T04:06:03;245.20;;;113.07;;
78895;SDS011;68284;59.124;37.910;2024-01-10T04:10:57;243.05;;;117.65;;
78895;SDS011;68284;59.124;37.910;2024-01-10T04:13:24;238.13;;;106.00;;
78895;SDS011;68284;59.124;37.910;2024-01-10T04:15:53;245.93;;;116.07;;
78895;SDS011;68284;59.124;37.910;2024-01-10T04:18:21;242.13;;;111.10;;
78895;SDS011;68284;59.124;37.910;2024-01-10T04:20:52;239.77;;;103.50;;
78895;SDS011;68284;59.124;37.910;2024-01-10T04:23:18;252.93;;;115.00;;
78895;SDS011;68284;59.124;37.910;2024-01-10T04:25:45;246.85;;;107.90;;
78895;SDS011;68284;59.124;37.910;2024-01-10T04:28:12;243.75;;;107.32;;
78895;SDS011;68284;59.124;37.910;2024-01-10T04:30:39;239.60;;;104.93;;
78895;SDS011;68284;59.124;37.910;2024-01-10T04:33:06;249.10;;;115.72;;
78895;SDS011;68284;59.124;37.910;2024-01-10T04:35:35;246.00;;;116.13;;
78895;SDS011;68284;59.124;37.910;2024-01-10T04:38:02;241.52;;;107.90;;
78895;SDS011;68284;59.124;37.910;2024-01-10T04:40:29;244.57;;;105.60;;
78895;SDS011;68284;59.124;37.910;2024-01-10T04:42:58;247.13;;;113.50;;
78895;SDS011;68284;59.124;37.910;2024-01-10T04:45:25;252.48;;;121.32;;
78895;SDS011;68284;59.124;37.910;2024-01-10T04:47:51;247.50;;;117.43;;
78895;SDS011;68284;59.124;37.910;2024-01-10T04:52:45;237.07;;;108.97;;
78895;SDS011;68284;59.124;37.910;2024-01-10T04:55:11;237.40;;;107.20;;
78895;SDS011;68284;59.124;37.910;2024-01-10T04:57:38;241.13;;;107.43;;
78895;SDS011;68284;59.124;37.910;2024-01-10T05:00:05;243.35;;;108.63;;
78895;SDS011;68284;59.124;37.910;2024-01-10T05:02:33;256.83;;;123.00;;
78895;SDS011;68284;59.124;37.910;2024-01-10T05:04:59;239.73;;;106.38;;
78895;SDS011;68284;59.124;37.910;2024-01-10T05:07:26;248.40;;;114.10;;
78895;SDS011;68284;59.124;37.910;2024-01-10T05:09:52;238.70;;;104.63;;
78895;SDS011;68284;59.124;37.910;2024-01-10T05:12:18;245.45;;;108.00;;
78895;SDS011;68284;59.124;37.910;2024-01-10T05:14:45;238.73;;;103.63;;
78895;SDS011;68284;59.124;37.910;2024-01-10T05:17:11;243.55;;;105.88;;
78895;SDS011;68284;59.124;37.910;2024-01-10T05:19:37;248.32;;;116.78;;
78895;SDS011;68284;59.124;37.910;2024-01-10T05:22:04;252.35;;;123.03;;
78895;SDS011;68284;59.124;37.910;2024-01-10T05:24:33;239.90;;;105.13;;
78895;SDS011;68284;59.124;37.910;2024-01-10T05:27:00;247.65;;;105.45;;
78895;SDS011;68284;59.124;37.910;2024-01-10T05:29:26;239.68;;;103.65;;
78895;SDS011;68284;59.124;37.910;2024-01-10T05:31:53;239.35;;;103.75;;
78895;SDS011;68284;59.124;37.910;2024-01-10T05:34:20;248.98;;;120.15;;
78895;SDS011;68284;59.124;37.910;2024-01-10T05:36:46;229.20;;;104.22;;
78895;SDS011;68284;59.124;37.910;2024-01-10T05:39:15;225.85;;;98.18;;
78895;SDS011;68284;59.124;37.910;2024-01-10T05:41:41;236.23;;;107.90;;
78895;SDS011;68284;59.124;37.910;2024-01-10T05:44:09;226.77;;;105.20;;
78895;SDS011;68284;59.124;37.910;2024-01-10T05:46:41;220.75;;;96.93;;
78895;SDS011;68284;59.124;37.910;2024-01-10T05:51:47;216.45;;;105.82;;
78895;SDS011;68284;59.124;37.910;2024-01-10T05:54:13;216.40;;;99.85;;
78895;SDS011;68284;59.124;37.910;2024-01-10T05:57:04;215.82;;;99.85;;
78895;SDS011;68284;59.124;37.910;2024-01-10T05:59:31;222.82;;;110.93;;
78895;SDS011;68284;59.124;37.910;2024-01-10T06:02:02;214.80;;;100.18;;
78895;SDS011;68284;59.124;37.910;2024-01-10T06:04:30;217.55;;;103.05;;
78895;SDS011;68284;59.124;37.910;2024-01-10T06:06:58;212.68;;;94.45;;
78895;SDS011;68284;59.124;37.910;2024-01-10T06:09:33;215.85;;;94.05;;
78895;SDS011;68284;59.124;37.910;2024-01-10T06:12:13;214.35;;;98.22;;
78895;SDS011;68284;59.124;37.910;2024-01-10T06:14:46;222.95;;;103.30;;
78895;SDS011;68284;59.124;37.910;2024-01-10T06:17:15;222.30;;;103.20;;
78895;SDS011;68284;59.124;37.910;2024-01-10T06:19:42;218.95;;;97.43;;
78895;SDS011;68284;59.124;37.910;2024-01-10T06:22:10;214.23;;;94.20;;
78895;SDS011;68284;59.124;37.910;2024-01-10T06:24:41;214.60;;;100.50;;
78895;SDS011;68284;59.124;37.910;2024-01-10T06:27:10;211.65;;;91.95;;
78895;SDS011;68284;59.124;37.910;2024-01-10T06:29:39;216.32;;;101.88;;
78895;SDS011;68284;59.124;37.910;2024-01-10T06:32:06;211.52;;;97.22;;
78895;SDS011;68284;59.124;37.910;2024-01-10T06:34:33;209.95;;;92.60;;
78895;SDS011;68284;59.124;37.910;2024-01-10T06:37:00;208.80;;;91.38;;
78895;SDS011;68284;59.124;37.910;2024-01-10T06:39:30;211.57;;;92.03;;
78895;SDS011;68284;59.124;37.910;2024-01-10T06:42:00;214.40;;;105.18;;
78895;SDS011;68284;59.124;37.910;2024-01-10T06:44:32;208.32;;;99.72;;
78895;SDS011;68284;59.124;37.910;2024-01-10T06:47:03;202.40;;;88.95;;
78895;SDS011;68284;59.124;37.910;2024-01-10T06:49:32;206.40;;;92.18;;
78895;SDS011;68284;59.124;37.910;2024-01-10T06:52:01;203.98;;;94.97;;
78895;SDS011;68284;59.124;37.910;2024-01-10T06:54:28;201.02;;;91.22;;
78895;SDS011;68284;59.124;37.910;2024-01-10T06:56:58;199.95;;;88.40;;
78895;SDS011;68284;59.124;37.910;2024-01-10T06:59:25;204.25;;;97.57;;
78895;SDS011;68284;59.124;37.910;2024-01-10T07:01:53;194.88;;;86.43;;
78895;SDS011;68284;59.124;37.910;2024-01-10T07:04:22;199.80;;;89.30;;
78895;SDS011;68284;59.124;37.910;2024-01-10T07:06:53;197.70;;;89.40;;
78895;SDS011;68284;59.124;37.910;2024-01-10T07:09:23;210.27;;;87.78;;
78895;SDS011;68284;59.124;37.910;2024-01-10T07:11:50;193.88;;;86.80;;
78895;SDS011;68284;59.124;37.910;2024-01-10T07:14:18;191.07;;;85.65;;
78895;SDS011;68284;59.124;37.910;2024-01-10T07:16:45;188.40;;;85.60;;
78895;SDS011;68284;59.124;37.910;2024-01-10T07:19:20;189.50;;;84.00;;
78895;SDS011;68284;59.124;37.910;2024-01-10T07:21:51;188.70;;;91.00;;
78895;SDS011;68284;59.124;37.910;2024-01-10T07:24:20;182.48;;;88.65;;
78895;SDS011;68284;59.124;37.910;2024-01-10T07:26:49;177.85;;;81.30;;
78895;SDS011;68284;59.124;37.910;2024-01-10T07:29:17;178.95;;;81.88;;
78895;SDS011;68284;59.124;37.910;2024-01-10T07:31:45;183.70;;;83.97;;
78895;SDS011;68284;59.124;37.910;2024-01-10T07:34:11;186.02;;;85.45;;
78895;SDS011;68284;59.124;37.910;2024-01-10T07:36:41;181.48;;;83.15;;
78895;SDS011;68284;59.124;37.910;2024-01-10T07:39:11;185.85;;;83.82;;
78895;SDS011;68284;59.124;37.910;2024-01-10T07:41:42;197.88;;;88.05;;
78895;SDS011;68284;59.124;37.910;2024-01-10T07:44:09;192.63;;;90.57;;
78895;SDS011;68284;59.124;37.910;2024-01-10T07:46:36;194.75;;;92.05;;
78895;SDS011;68284;59.124;37.910;2024-01-10T07:49:05;188.07;;;89.53;;
78895;SDS011;68284;59.124;37.910;2024-01-10T07:51:33;193.00;;;87.53;;
78895;SDS011;68284;59.124;37.910;2024-01-10T07:54:02;186.65;;;85.60;;
78895;SDS011;68284;59.124;37.910;2024-01-10T07:56:28;193.18;;;91.32;;
78895;SDS011;68284;59.124;37.910;2024-01-10T07:58:56;194.07;;;91.30;;
78895;SDS011;68284;59.124;37.910;2024-01-10T08:01:22;196.07;;;93.03;;
78895;SDS011;68284;59.124;37.910;2024-01-10T08:03:49;204.98;;;95.20;;
78895;SDS011;68284;59.124;37.910;2024-01-10T08:06:16;193.00;;;84.82;;
78895;SDS011;68284;59.124;37.910;2024-01-10T08:08:43;195.77;;;90.43;;
78895;SDS011;68284;59.124;37.910;2024-01-10T08:11:09;195.52;;;86.40;;
78895;SDS011;68284;59.124;37.910;2024-01-10T08:13:37;192.82;;;85.82;;
78895;SDS011;68284;59.124;37.910;2024-01-10T08:16:03;204.80;;;87.05;;
78895;SDS011;68284;59.124;37.910;2024-01-10T08:18:30;198.77;;;87.95;;
78895;SDS011;68284;59.124;37.910;2024-01-10T08:20:58;201.43;;;88.75;;
78895;SDS011;68284;59.124;37.910;2024-01-10T08:23:25;199.20;;;86.00;;
78895;SDS011;68284;59.124;37.910;2024-01-10T08:25:51;204.45;;;92.20;;
78895;SDS011;68284;59.124;37.910;2024-01-10T08:28:19;202.52;;;97.57;;
78895;SDS011;68284;59.124;37.910;2024-01-10T08:30:46;197.27;;;88.43;;
78895;SDS011;68284;59.124;37.910;2024-01-10T08:33:12;215.52;;;93.30;;
78895;SDS011;68284;59.124;37.910;2024-01-10T08:35:39;202.98;;;95.63;;
78895;SDS011;68284;59.124;37.910;2024-01-10T08:38:05;195.82;;;84.95;;
78895;SDS011;68284;59.124;37.910;2024-01-10T08:40:33;196.18;;;88.85;;
78895;SDS011;68284;59.124;37.910;2024-01-10T08:42:59;200.88;;;92.30;;
78895;SDS011;68284;59.124;37.910;2024-01-10T08:45:26;196.70;;;86.47;;
78895;SDS011;68284;59.124;37.910;2024-01-10T08:47:52;200.50;;;96.72;;
78895;SDS011;68284;59.124;37.910;2024-01-10T08:50:19;198.23;;;89.43;;
78895;SDS011;68284;59.124;37.910;2024-01-10T08:52:50;206.30;;;94.78;;
78895;SDS011;68284;59.124;37.910;2024-01-10T08:55:19;204.93;;;88.78;;
78895;SDS011;68284;59.124;37.910;2024-01-10T08:57:47;202.55;;;93.70;;
78895;SDS011;68284;59.124;37.910;2024-01-10T09:00:14;208.60;;;97.95;;
78895;SDS011;68284;59.124;37.910;2024-01-10T09:02:41;210.13;;;99.47;;
78895;SDS011;68284;59.124;37.910;2024-01-10T09:05:07;207.80;;;96.45;;
78895;SDS011;68284;59.124;37.910;2024-01-10T09:07:36;201.88;;;93.47;;
78895;SDS011;68284;59.124;37.910;2024-01-10T09:10:03;207.85;;;88.43;;
78895;SDS011;68284;59.124;37.910;2024-01-10T09:12:32;209.85;;;96.15;;
78895;SDS011;68284;59.124;37.910;2024-01-10T09:15:00;215.07;;;97.25;;
78895;SDS011;68284;59.124;37.910;2024-01-10T09:17:26;205.82;;;99.38;;
78895;SDS011;68284;59.124;37.910;2024-01-10T09:19:55;202.35;;;87.35;;
78895;SDS011;68284;59.124;37.910;2024-01-10T09:22:22;198.73;;;86.95;;
78895;SDS011;68284;59.124;37.910;2024-01-10T09:24:48;199.77;;;85.88;;
78895;SDS011;68284;59.124;37.910;2024-01-10T09:27:17;203.52;;;94.88;;
78895;SDS011;68284;59.124;37.910;2024-01-10T09:29:43;199.30;;;87.45;;
78895;SDS011;68284;59.124;37.910;2024-01-10T09:32:10;199.48;;;87.07;;
78895;SDS011;68284;59.124;37.910;2024-01-10T09:34:38;197.57;;;86.40;;
78895;SDS011;68284;59.124;37.910;2024-01-10T09:37:04;206.18;;;89.93;;
78895;SDS011;68284;59.124;37.910;2024-01-10T09:39:32;203.65;;;100.72;;
78895;SDS011;68284;59.124;37.910;2024-01-10T09:41:58;191.15;;;85.25;;
78895;SDS011;68284;59.124;37.910;2024-01-10T09:44:26;189.90;;;86.78;;
78895;SDS011;68284;59.124;37.910;2024-01-10T09:46:54;197.75;;;98.07;;
78895;SDS011;68284;59.124;37.910;2024-01-10T09:49:21;189.68;;;88.15;;
78895;SDS011;68284;59.124;37.910;2024-01-10T09:51:48;185.73;;;90.93;;
78895;SDS011;68284;59.124;37.910;2024-01-10T09:54:15;207.13;;;91.38;;
78895;SDS011;68284;59.124;37.910;2024-01-10T09:56:42;181.50;;;82.40;;
78895;SDS011;68284;59.124;37.910;2024-01-10T09:59:08;180.25;;;81.78;;
78895;SDS011;68284;59.124;37.910;2024-01-10T10:01:37;175.40;;;80.70;;
78895;SDS011;68284;59.124;37.910;2024-01-10T10:04:07;174.95;;;80.32;;
78895;SDS011;68284;59.124;37.910;2024-01-10T10:06:37;175.00;;;79.90;;
78895;SDS011;68284;59.124;37.910;2024-01-10T10:09:04;173.50;;;86.72;;
78895;SDS011;68284;59.124;37.910;2024-01-10T10:11:31;170.07;;;79.35;;
78895;SDS011;68284;59.124;37.910;2024-01-10T10:14:05;169.02;;;77.40;;
78895;SDS011;68284;59.124;37.910;2024-01-10T10:16:41;168.68;;;77.70;;
78895;SDS011;68284;59.124;37.910;2024-01-10T10:19:08;171.02;;;83.28;;
78895;SDS011;68284;59.124;37.910;2024-01-10T10:21:37;169.25;;;75.75;;
78895;SDS011;68284;59.124;37.910;2024-01-10T10:24:04;172.25;;;78.65;;
78895;SDS011;68284;59.124;37.910;2024-01-10T10:26:34;186.15;;;87.25;;
78895;SDS011;68284;59.124;37.910;2024-01-10T10:29:01;177.68;;;83.10;;
78895;SDS011;68284;59.124;37.910;2024-01-10T10:31:29;184.13;;;86.47;;
78895;SDS011;68284;59.124;37.910;2024-01-10T10:33:57;186.23;;;82.47;;
78895;SDS011;68284;59.124;37.910;2024-01-10T10:36:26;191.07;;;90.07;;
78895;SDS011;68284;59.124;37.910;2024-01-10T10:38:54;190.52;;;84.63;;
78895;SDS011;68284;59.124;37.910;2024-01-10T10:41:21;196.32;;;90.30;;
78895;SDS011;68284;59.124;37.910;2024-01-10T10:43:47;208.10;;;97.97;;
78895;SDS011;68284;59.124;37.910;2024-01-10T10:46:16;199.07;;;92.45;;
78895;SDS011;68284;59.124;37.910;2024-01-10T10:48:43;203.52;;;89.15;;
78895;SDS011;68284;59.124;37.910;2024-01-10T10:53:44;201.35;;;94.38;;
78895;SDS011;68284;59.124;37.910;2024-01-10T10:56:13;201.55;;;93.25;;
78895;SDS011;68284;59.124;37.910;2024-01-10T10:58:43;197.85;;;87.85;;
78895;SDS011;68284;59.124;37.910;2024-01-10T11:01:11;200.23;;;93.68;;
78895;SDS011;68284;59.124;37.910;2024-01-10T11:03:39;205.70;;;96.18;;
78895;SDS011;68284;59.124;37.910;2024-01-10T11:06:07;205.52;;;93.93;;
78895;SDS011;68284;59.124;37.910;2024-01-10T11:08:39;199.25;;;89.93;;
78895;SDS011;68284;59.124;37.910;2024-01-10T11:11:17;210.50;;;99.45;;
78895;SDS011;68284;59.124;37.910;2024-01-10T11:23:10;213.00;;;100.18;;
78895;SDS011;68284;59.124;37.910;2024-01-10T11:25:57;213.13;;;100.90;;
78895;SDS011;68284;59.124;37.910;2024-01-10T11:28:25;204.13;;;90.68;;
78895;SDS011;68284;59.124;37.910;2024-01-10T11:30:54;212.00;;;103.10;;
78895;SDS011;68284;59.124;37.910;2024-01-10T11:33:23;209.25;;;91.65;;
78895;SDS011;68284;59.124;37.910;2024-01-10T11:36:10;212.07;;;92.45;;
78895;SDS011;68284;59.124;37.910;2024-01-10T11:46:38;204.73;;;89.82;;
78895;SDS011;68284;59.124;37.910;2024-01-10T11:49:08;203.55;;;89.63;;
78895;SDS011;68284;59.124;37.910;2024-01-10T11:54:02;215.57;;;100.60;;
78895;SDS011;68284;59.124;37.910;2024-01-10T11:56:38;204.27;;;94.20;;
78895;SDS011;68284;59.124;37.910;2024-01-10T11:59:06;205.18;;;90.93;;
78895;SDS011;68284;59.124;37.910;2024-01-10T12:01:37;205.10;;;90.70;;
78895;SDS011;68284;59.124;37.910;2024-01-10T12:04:05;202.85;;;89.13;;
78895;SDS011;68284;59.124;37.910;2024-01-10T12:06:34;223.93;;;99.80;;
78895;SDS011;68284;59.124;37.910;2024-01-10T12:09:30;205.38;;;92.03;;
78895;SDS011;68284;59.124;37.910;2024-01-10T12:12:07;205.15;;;90.22;;
78895;SDS011;68284;59.124;37.910;2024-01-10T12:14:35;207.32;;;90.82;;
78895;SDS011;68284;59.124;37.910;2024-01-10T12:17:03;207.38;;;88.10;;
78895;SDS011;68284;59.124;37.910;2024-01-10T12:19:32;211.73;;;91.88;;
78895;SDS011;68284;59.124;37.910;2024-01-10T12:22:00;222.63;;;102.40;;
78895;SDS011;68284;59.124;37.910;2024-01-10T12:24:27;217.52;;;91.40;;
78895;SDS011;68284;59.124;37.910;2024-01-10T12:26:56;221.27;;;92.05;;
78895;SDS011;68284;59.124;37.910;2024-01-10T12:29:22;218.65;;;91.45;;
78895;SDS011;68284;59.124;37.910;2024-01-10T12:31:52;226.88;;;103.07;;
78895;SDS011;68284;59.124;37.910;2024-01-10T12:34:19;227.10;;;103.38;;
78895;SDS011;68284;59.124;37.910;2024-01-10T12:36:47;225.77;;;96.65;;
78895;SDS011;68284;59.124;37.910;2024-01-10T12:39:14;227.55;;;103.10;;
78895;SDS011;68284;59.124;37.910;2024-01-10T12:41:41;224.73;;;97.60;;
78895;SDS011;68284;59.124;37.910;2024-01-10T12:44:09;232.38;;;97.10;;
78895;SDS011;68284;59.124;37.910;2024-01-10T12:49:15;229.25;;;108.30;;
78895;SDS011;68284;59.124;37.910;2024-01-10T12:51:41;228.60;;;101.05;;
78895;SDS011;68284;59.124;37.910;2024-01-10T12:54:09;226.75;;;99.80;;
78895;SDS011;68284;59.124;37.910;2024-01-10T12:56:35;233.32;;;108.65;;
78895;SDS011;68284;59.124;37.910;2024-01-10T12:59:03;231.57;;;104.00;;
78895;SDS011;68284;59.124;37.910;2024-01-10T13:01:30;232.55;;;106.82;;
78895;SDS011;68284;59.124;37.910;2024-01-10T13:03:57;231.07;;;99.95;;
78895;SDS011;68284;59.124;37.910;2024-01-10T13:06:24;231.30;;;106.72;;
78895;SDS011;68284;59.124;37.910;2024-01-10T13:08:50;241.20;;;113.88;;
78895;SDS011;68284;59.124;37.910;2024-01-10T13:11:18;227.93;;;99.13;;
78895;SDS011;68284;59.124;37.910;2024-01-10T13:13:48;227.88;;;105.40;;
78895;SDS011;68284;59.124;37.910;2024-01-10T13:16:16;231.50;;;107.80;;
78895;SDS011;68284;59.124;37.910;2024-01-10T13:18:46;236.07;;;111.20;;
78895;SDS011;68284;59.124;37.910;2024-01-10T13:21:12;230.55;;;101.00;;
78895;SDS011;68284;59.124;37.910;2024-01-10T13:23:39;225.70;;;99.97;;
78895;SDS011;68284;59.124;37.910;2024-01-10T13:28:36;221.43;;;100.53;;
78895;SDS011;68284;59.124;37.910;2024-01-10T13:31:05;228.80;;;111.18;;
78895;SDS011;68284;59.124;37.910;2024-01-10T13:33:31;224.32;;;98.22;;
78895;SDS011;68284;59.124;37.910;2024-01-10T13:35:58;225.55;;;99.43;;
78895;SDS011;68284;59.124;37.910;2024-01-10T13:38:24;232.98;;;109.18;;
78895;SDS011;68284;59.124;37.910;2024-01-10T13:40:52;228.15;;;107.07;;
78895;SDS011;68284;59.124;37.910;2024-01-10T13:43:19;229.25;;;105.75;;
78895;SDS011;68284;59.124;37.910;2024-01-10T13:45:47;228.35;;;101.00;;
78895;SDS011;68284;59.124;37.910;2024-01-10T13:48:14;224.30;;;98.60;;
78895;SDS011;68284;59.124;37.910;2024-01-10T13:50:42;229.40;;;98.78;;
78895;SDS011;68284;59.124;37.910;2024-01-10T13:53:08;231.48;;;115.05;;
78895;SDS011;68284;59.124;37.910;2024-01-10T13:55:36;227.18;;;99.65;;
78895;SDS011;68284;59.124;37.910;2024-01-10T13:58:02;229.27;;;106.95;;
78895;SDS011;68284;59.124;37.910;2024-01-10T14:00:29;226.23;;;99.45;;
78895;SDS011;68284;59.124;37.910;2024-01-10T14:02:56;228.52;;;106.03;;
78895;SDS011;68284;59.124;37.910;2024-01-10T14:05:28;226.75;;;98.68;;
78895;SDS011;68284;59.124;37.910;2024-01-10T14:07:55;231.55;;;101.35;;
78895;SDS011;68284;59.124;37.910;2024-01-10T14:12:50;227.60;;;111.95;;
78895;SDS011;68284;59.124;37.910;2024-01-10T14:15:17;225.32;;;107.68;;
78895;SDS011;68284;59.124;37.910;2024-01-10T14:17:43;227.20;;;105.70;;
78895;SDS011;68284;59.124;37.910;2024-01-10T14:20:10;224.27;;;99.80;;
78895;SDS011;68284;59.124;37.910;2024-01-10T14:22:39;230.82;;;108.43;;
78895;SDS011;68284;59.124;37.910;2024-01-10T14:25:07;222.55;;;97.97;;
78895;SDS011;68284;59.124;37.910;2024-01-10T14:27:35;225.77;;;97.88;;
78895;SDS011;68284;59.124;37.910;2024-01-10T14:30:05;225.63;;;105.57;;
78895;SDS011;68284;59.124;37.910;2024-01-10T14:32:34;233.73;;;111.10;;
78895;SDS011;68284;59.124;37.910;2024-01-10T14:35:00;226.45;;;104.80;;
78895;SDS011;68284;59.124;37.910;2024-01-10T14:37:28;215.00;;;94.43;;
78895;SDS011;68284;59.124;37.910;2024-01-10T14:39:55;221.77;;;105.78;;
78895;SDS011;68284;59.124;37.910;2024-01-10T14:42:22;221.45;;;99.30;;
78895;SDS011;68284;59.124;37.910;2024-01-10T14:44:51;218.30;;;96.20;;
78895;SDS011;68284;59.124;37.910;2024-01-10T14:47:18;224.40;;;107.80;;